sensor_id;sensor_type;location;lat;lon;timestamp;P1;durP1;ratioP1;P2;durP2;ratioP2
85385;SDS011;75792;42.686;23.298;2024-02-21T00:01:45;7.63;;;4.60;;
85385;SDS011;75792;42.686;23.298;2024-02-21T00:04:10;8.13;;;7.30;;
85385;SDS011;75792;42.686;23.298;2024-02-21T00:06:36;11.20;;;10.40;;
85385;SDS011;75792;42.686;23.298;2024-02-21T00:09:01;7.97;;;7.22;;
85385;SDS011;75792;42.686;23.298;2024-02-21T00:11:26;6.57;;;4.85;;
85385;SDS011;75792;42.686;23.298;2024-02-21T00:13:53;9.48;;;8.57;;
85385;SDS011;75792;42.686;23.298;2024-02-21T00:16:18;5.50;;;4.47;;
85385;SDS011;75792;42.686;23.298;2024-02-21T00:18:43;11.57;;;7.60;;
85385;SDS011;75792;42.686;23.298;2024-02-21T00:21:09;6.95;;;4.43;;
85385;SDS011;75792;42.686;23.298;2024-02-21T00:23:40;7.32;;;4.38;;
85385;SDS011;75792;42.686;23.298;2024-02-21T00:26:05;6.20;;;5.03;;
85385;SDS011;75792;42.686;23.298;2024-02-21T00:28:30;6.10;;;4.25;;
85385;SDS011;75792;42.686;23.298;2024-02-21T00:30:56;8.45;;;5.47;;
85385;SDS011;75792;42.686;23.298;2024-02-21T00:33:21;7.05;;;6.35;;
85385;SDS011;75792;42.686;23.298;2024-02-21T00:35:46;9.02;;;8.05;;
85385;SDS011;75792;42.686;23.298;2024-02-21T00:38:12;7.60;;;6.90;;
85385;SDS011;75792;42.686;23.298;2024-02-21T00:40:37;10.02;;;8.43;;
85385;SDS011;75792;42.686;23.298;2024-02-21T00:43:03;5.63;;;4.22;;
85385;SDS011;75792;42.686;23.298;2024-02-21T00:45:28;10.27;;;9.38;;
85385;SDS011;75792;42.686;23.298;2024-02-21T00:47:53;6.05;;;4.05;;
85385;SDS011;75792;42.686;23.298;2024-02-21T00:50:19;11.18;;;10.05;;
85385;SDS011;75792;42.686;23.298;2024-02-21T00:52:44;7.82;;;4.57;;
85385;SDS011;75792;42.686;23.298;2024-02-21T00:55:10;5.30;;;3.88;;
85385;SDS011;75792;42.686;23.298;2024-02-21T00:57:35;7.38;;;4.72;;
85385;SDS011;75792;42.686;23.298;2024-02-21T01:00:02;6.93;;;5.00;;
85385;SDS011;75792;42.686;23.298;2024-02-21T01:02:28;8.07;;;7.28;;
85385;SDS011;75792;42.686;23.298;2024-02-21T01:04:56;8.73;;;6.70;;
85385;SDS011;75792;42.686;23.298;2024-02-21T01:07:22;7.82;;;7.13;;
85385;SDS011;75792;42.686;23.298;2024-02-21T01:09:47;10.40;;;9.50;;
85385;SDS011;75792;42.686;23.298;2024-02-21T01:12:12;9.63;;;8.73;;
85385;SDS011;75792;42.686;23.298;2024-02-21T01:14:38;9.95;;;9.05;;
85385;SDS011;75792;42.686;23.298;2024-02-21T01:17:03;10.75;;;9.50;;
85385;SDS011;75792;42.686;23.298;2024-02-21T01:19:31;8.07;;;7.25;;
85385;SDS011;75792;42.686;23.298;2024-02-21T01:21:56;5.80;;;4.80;;
85385;SDS011;75792;42.686;23.298;2024-02-21T01:24:21;9.20;;;8.30;;
85385;SDS011;75792;42.686;23.298;2024-02-21T01:26:47;8.45;;;7.35;;
85385;SDS011;75792;42.686;23.298;2024-02-21T01:29:12;8.25;;;7.43;;
85385;SDS011;75792;42.686;23.298;2024-02-21T01:31:37;9.75;;;8.75;;
85385;SDS011;75792;42.686;23.298;2024-02-21T01:34:03;8.60;;;7.70;;
85385;SDS011;75792;42.686;23.298;2024-02-21T01:36:28;9.52;;;8.13;;
85385;SDS011;75792;42.686;23.298;2024-02-21T01:38:53;6.05;;;4.47;;
85385;SDS011;75792;42.686;23.298;2024-02-21T01:41:19;6.53;;;5.70;;
85385;SDS011;75792;42.686;23.298;2024-02-21T01:43:44;8.35;;;7.47;;
85385;SDS011;75792;42.686;23.298;2024-02-21T01:46:10;6.18;;;3.92;;
85385;SDS011;75792;42.686;23.298;2024-02-21T01:48:36;10.65;;;9.73;;
85385;SDS011;75792;42.686;23.298;2024-02-21T01:51:01;9.25;;;8.25;;
85385;SDS011;75792;42.686;23.298;2024-02-21T01:53:36;8.77;;;8.00;;
85385;SDS011;75792;42.686;23.298;2024-02-21T01:56:06;6.97;;;5.53;;
85385;SDS011;75792;42.686;23.298;2024-02-21T01:58:32;6.57;;;5.88;;
85385;SDS011;75792;42.686;23.298;2024-02-21T02:01:02;8.02;;;5.65;;
85385;SDS011;75792;42.686;23.298;2024-02-21T02:03:27;9.57;;;8.25;;
85385;SDS011;75792;42.686;23.298;2024-02-21T02:05:53;9.73;;;8.75;;
85385;SDS011;75792;42.686;23.298;2024-02-21T02:08:19;9.18;;;5.97;;
85385;SDS011;75792;42.686;23.298;2024-02-21T02:10:45;8.25;;;7.45;;
85385;SDS011;75792;42.686;23.298;2024-02-21T02:13:11;9.68;;;8.68;;
85385;SDS011;75792;42.686;23.298;2024-02-21T02:15:43;10.95;;;8.30;;
85385;SDS011;75792;42.686;23.298;2024-02-21T02:18:13;11.50;;;9.15;;
85385;SDS011;75792;42.686;23.298;2024-02-21T02:20:39;9.75;;;6.32;;
85385;SDS011;75792;42.686;23.298;2024-02-21T02:25:43;8.68;;;6.00;;
85385;SDS011;75792;42.686;23.298;2024-02-21T02:28:09;11.48;;;8.95;;
85385;SDS011;75792;42.686;23.298;2024-02-21T02:30:37;8.20;;;5.60;;
85385;SDS011;75792;42.686;23.298;2024-02-21T02:33:05;12.27;;;10.10;;
85385;SDS011;75792;42.686;23.298;2024-02-21T02:35:31;13.65;;;7.43;;
85385;SDS011;75792;42.686;23.298;2024-02-21T02:37:57;9.68;;;6.68;;
85385;SDS011;75792;42.686;23.298;2024-02-21T02:40:23;11.52;;;8.27;;
85385;SDS011;75792;42.686;23.298;2024-02-21T02:42:49;11.07;;;6.47;;
85385;SDS011;75792;42.686;23.298;2024-02-21T02:45:15;13.52;;;9.57;;
85385;SDS011;75792;42.686;23.298;2024-02-21T02:50:07;11.40;;;9.55;;
85385;SDS011;75792;42.686;23.298;2024-02-21T02:52:32;13.27;;;10.40;;
85385;SDS011;75792;42.686;23.298;2024-02-21T02:54:58;12.35;;;7.72;;
85385;SDS011;75792;42.686;23.298;2024-02-21T02:57:24;12.15;;;9.63;;
85385;SDS011;75792;42.686;23.298;2024-02-21T02:59:52;10.70;;;6.28;;
85385;SDS011;75792;42.686;23.298;2024-02-21T03:02:18;12.80;;;11.45;;
85385;SDS011;75792;42.686;23.298;2024-02-21T03:04:43;12.18;;;9.68;;
85385;SDS011;75792;42.686;23.298;2024-02-21T03:07:09;11.88;;;10.63;;
85385;SDS011;75792;42.686;23.298;2024-02-21T03:09:38;11.68;;;10.32;;
85385;SDS011;75792;42.686;23.298;2024-02-21T03:12:05;12.63;;;11.40;;
85385;SDS011;75792;42.686;23.298;2024-02-21T03:14:33;10.70;;;9.30;;
85385;SDS011;75792;42.686;23.298;2024-02-21T03:16:58;11.10;;;9.93;;
85385;SDS011;75792;42.686;23.298;2024-02-21T03:19:24;14.85;;;10.23;;
85385;SDS011;75792;42.686;23.298;2024-02-21T03:21:51;11.70;;;10.40;;
85385;SDS011;75792;42.686;23.298;2024-02-21T03:24:16;11.82;;;7.53;;
85385;SDS011;75792;42.686;23.298;2024-02-21T03:26:42;11.25;;;9.38;;
85385;SDS011;75792;42.686;23.298;2024-02-21T03:29:08;11.73;;;6.30;;
85385;SDS011;75792;42.686;23.298;2024-02-21T03:31:35;10.57;;;9.25;;
85385;SDS011;75792;42.686;23.298;2024-02-21T03:34:00;12.68;;;9.48;;
85385;SDS011;75792;42.686;23.298;2024-02-21T03:36:25;12.57;;;11.38;;
85385;SDS011;75792;42.686;23.298;2024-02-21T03:38:51;10.23;;;6.55;;
85385;SDS011;75792;42.686;23.298;2024-02-21T03:41:16;12.35;;;9.85;;
85385;SDS011;75792;42.686;23.298;2024-02-21T03:43:41;11.02;;;6.55;;
85385;SDS011;75792;42.686;23.298;2024-02-21T03:46:07;11.10;;;6.75;;
85385;SDS011;75792;42.686;23.298;2024-02-21T03:48:33;11.75;;;9.02;;
85385;SDS011;75792;42.686;23.298;2024-02-21T03:50:58;10.43;;;6.53;;
85385;SDS011;75792;42.686;23.298;2024-02-21T03:53:24;13.52;;;10.93;;
85385;SDS011;75792;42.686;23.298;2024-02-21T03:55:49;12.48;;;10.82;;
85385;SDS011;75792;42.686;23.298;2024-02-21T03:58:14;10.07;;;6.70;;
85385;SDS011;75792;42.686;23.298;2024-02-21T04:00:40;15.15;;;11.95;;
85385;SDS011;75792;42.686;23.298;2024-02-21T04:03:06;17.63;;;12.48;;
85385;SDS011;75792;42.686;23.298;2024-02-21T04:05:31;12.82;;;10.43;;
85385;SDS011;75792;42.686;23.298;2024-02-21T04:07:58;12.43;;;10.20;;
85385;SDS011;75792;42.686;23.298;2024-02-21T04:10:23;10.63;;;7.32;;
85385;SDS011;75792;42.686;23.298;2024-02-21T04:12:49;13.05;;;10.65;;
85385;SDS011;75792;42.686;23.298;2024-02-21T04:15:15;11.90;;;7.30;;
85385;SDS011;75792;42.686;23.298;2024-02-21T04:17:41;13.15;;;11.00;;
85385;SDS011;75792;42.686;23.298;2024-02-21T04:20:13;10.52;;;7.28;;
85385;SDS011;75792;42.686;23.298;2024-02-21T04:22:40;16.98;;;11.93;;
85385;SDS011;75792;42.686;23.298;2024-02-21T04:25:07;12.90;;;11.38;;
85385;SDS011;75792;42.686;23.298;2024-02-21T04:27:33;17.95;;;11.98;;
85385;SDS011;75792;42.686;23.298;2024-02-21T04:29:58;16.40;;;12.50;;
85385;SDS011;75792;42.686;23.298;2024-02-21T04:32:24;13.02;;;7.78;;
85385;SDS011;75792;42.686;23.298;2024-02-21T04:34:49;15.48;;;8.85;;
85385;SDS011;75792;42.686;23.298;2024-02-21T04:37:14;15.43;;;12.40;;
85385;SDS011;75792;42.686;23.298;2024-02-21T04:39:40;19.77;;;13.70;;
85385;SDS011;75792;42.686;23.298;2024-02-21T04:42:05;13.73;;;11.07;;
85385;SDS011;75792;42.686;23.298;2024-02-21T04:44:31;15.45;;;12.00;;
85385;SDS011;75792;42.686;23.298;2024-02-21T04:46:56;18.08;;;10.77;;
85385;SDS011;75792;42.686;23.298;2024-02-21T04:49:22;14.35;;;12.13;;
85385;SDS011;75792;42.686;23.298;2024-02-21T04:51:47;15.82;;;12.18;;
85385;SDS011;75792;42.686;23.298;2024-02-21T04:54:12;16.52;;;13.82;;
85385;SDS011;75792;42.686;23.298;2024-02-21T04:56:38;14.52;;;9.73;;
85385;SDS011;75792;42.686;23.298;2024-02-21T04:59:03;17.05;;;13.63;;
85385;SDS011;75792;42.686;23.298;2024-02-21T05:01:29;16.25;;;13.07;;
85385;SDS011;75792;42.686;23.298;2024-02-21T05:03:54;13.05;;;9.77;;
85385;SDS011;75792;42.686;23.298;2024-02-21T05:06:19;16.05;;;12.20;;
85385;SDS011;75792;42.686;23.298;2024-02-21T05:08:45;20.33;;;12.57;;
85385;SDS011;75792;42.686;23.298;2024-02-21T05:11:10;16.08;;;14.05;;
85385;SDS011;75792;42.686;23.298;2024-02-21T05:13:36;16.27;;;14.02;;
85385;SDS011;75792;42.686;23.298;2024-02-21T05:16:01;16.48;;;13.80;;
85385;SDS011;75792;42.686;23.298;2024-02-21T05:18:27;16.17;;;13.32;;
85385;SDS011;75792;42.686;23.298;2024-02-21T05:20:53;19.30;;;13.73;;
85385;SDS011;75792;42.686;23.298;2024-02-21T05:23:19;17.63;;;13.88;;
85385;SDS011;75792;42.686;23.298;2024-02-21T05:25:44;19.77;;;13.88;;
85385;SDS011;75792;42.686;23.298;2024-02-21T05:28:10;20.27;;;14.65;;
85385;SDS011;75792;42.686;23.298;2024-02-21T05:30:35;16.38;;;9.73;;
85385;SDS011;75792;42.686;23.298;2024-02-21T05:33:06;19.42;;;13.68;;
85385;SDS011;75792;42.686;23.298;2024-02-21T05:35:32;20.15;;;13.38;;
85385;SDS011;75792;42.686;23.298;2024-02-21T05:37:57;19.25;;;9.93;;
85385;SDS011;75792;42.686;23.298;2024-02-21T05:42:50;16.38;;;8.57;;
85385;SDS011;75792;42.686;23.298;2024-02-21T05:47:42;18.45;;;12.75;;
85385;SDS011;75792;42.686;23.298;2024-02-21T05:50:07;18.27;;;12.65;;
85385;SDS011;75792;42.686;23.298;2024-02-21T05:52:33;20.30;;;10.50;;
85385;SDS011;75792;42.686;23.298;2024-02-21T05:54:59;18.15;;;15.13;;
85385;SDS011;75792;42.686;23.298;2024-02-21T05:57:24;19.30;;;10.25;;
85385;SDS011;75792;42.686;23.298;2024-02-21T05:59:50;18.35;;;15.13;;
85385;SDS011;75792;42.686;23.298;2024-02-21T06:02:15;23.23;;;16.55;;
85385;SDS011;75792;42.686;23.298;2024-02-21T06:04:41;17.35;;;11.23;;
85385;SDS011;75792;42.686;23.298;2024-02-21T06:07:07;21.35;;;13.68;;
85385;SDS011;75792;42.686;23.298;2024-02-21T06:09:33;23.15;;;12.70;;
85385;SDS011;75792;42.686;23.298;2024-02-21T06:11:58;28.23;;;18.77;;
85385;SDS011;75792;42.686;23.298;2024-02-21T06:14:23;29.58;;;17.67;;
85385;SDS011;75792;42.686;23.298;2024-02-21T06:16:49;22.02;;;12.55;;
85385;SDS011;75792;42.686;23.298;2024-02-21T06:19:14;25.45;;;14.43;;
85385;SDS011;75792;42.686;23.298;2024-02-21T06:21:40;27.05;;;16.90;;
85385;SDS011;75792;42.686;23.298;2024-02-21T06:24:05;25.80;;;17.58;;
85385;SDS011;75792;42.686;23.298;2024-02-21T06:26:31;26.70;;;17.75;;
85385;SDS011;75792;42.686;23.298;2024-02-21T06:28:56;26.60;;;16.02;;
85385;SDS011;75792;42.686;23.298;2024-02-21T06:31:22;26.02;;;16.00;;
85385;SDS011;75792;42.686;23.298;2024-02-21T06:33:47;27.75;;;17.05;;
85385;SDS011;75792;42.686;23.298;2024-02-21T06:36:13;34.05;;;19.58;;
85385;SDS011;75792;42.686;23.298;2024-02-21T06:38:38;31.08;;;22.30;;
85385;SDS011;75792;42.686;23.298;2024-02-21T06:41:04;35.40;;;26.40;;
85385;SDS011;75792;42.686;23.298;2024-02-21T06:43:29;37.35;;;23.80;;
85385;SDS011;75792;42.686;23.298;2024-02-21T06:45:55;34.20;;;23.33;;
85385;SDS011;75792;42.686;23.298;2024-02-21T06:48:21;31.35;;;20.52;;
85385;SDS011;75792;42.686;23.298;2024-02-21T06:50:47;28.08;;;19.63;;
85385;SDS011;75792;42.686;23.298;2024-02-21T06:53:16;21.17;;;11.35;;
85385;SDS011;75792;42.686;23.298;2024-02-21T06:55:42;23.45;;;17.02;;
85385;SDS011;75792;42.686;23.298;2024-02-21T06:58:08;19.48;;;11.45;;
85385;SDS011;75792;42.686;23.298;2024-02-21T07:00:36;17.27;;;12.90;;
85385;SDS011;75792;42.686;23.298;2024-02-21T07:03:02;21.38;;;11.93;;
85385;SDS011;75792;42.686;23.298;2024-02-21T07:05:27;20.25;;;10.63;;
85385;SDS011;75792;42.686;23.298;2024-02-21T07:07:53;18.20;;;9.45;;
85385;SDS011;75792;42.686;23.298;2024-02-21T07:10:18;21.33;;;15.18;;
85385;SDS011;75792;42.686;23.298;2024-02-21T07:12:43;18.35;;;9.70;;
85385;SDS011;75792;42.686;23.298;2024-02-21T07:15:09;17.67;;;10.48;;
85385;SDS011;75792;42.686;23.298;2024-02-21T07:17:34;19.48;;;10.88;;
85385;SDS011;75792;42.686;23.298;2024-02-21T07:20:00;17.58;;;10.15;;
85385;SDS011;75792;42.686;23.298;2024-02-21T07:24:51;18.37;;;13.70;;
85385;SDS011;75792;42.686;23.298;2024-02-21T07:27:17;17.50;;;13.60;;
85385;SDS011;75792;42.686;23.298;2024-02-21T07:29:42;21.85;;;13.93;;
85385;SDS011;75792;42.686;23.298;2024-02-21T07:32:07;20.73;;;11.75;;
85385;SDS011;75792;42.686;23.298;2024-02-21T07:34:33;15.05;;;10.02;;
85385;SDS011;75792;42.686;23.298;2024-02-21T07:36:58;17.85;;;12.38;;
85385;SDS011;75792;42.686;23.298;2024-02-21T07:39:23;20.60;;;11.30;;
85385;SDS011;75792;42.686;23.298;2024-02-21T07:41:49;21.63;;;12.98;;
85385;SDS011;75792;42.686;23.298;2024-02-21T07:44:15;21.52;;;14.23;;
85385;SDS011;75792;42.686;23.298;2024-02-21T07:46:40;19.30;;;13.23;;
85385;SDS011;75792;42.686;23.298;2024-02-21T07:49:06;18.30;;;13.57;;
85385;SDS011;75792;42.686;23.298;2024-02-21T07:51:31;16.05;;;9.15;;
85385;SDS011;75792;42.686;23.298;2024-02-21T07:53:57;18.58;;;10.45;;
85385;SDS011;75792;42.686;23.298;2024-02-21T07:56:22;18.63;;;10.35;;
85385;SDS011;75792;42.686;23.298;2024-02-21T07:58:47;18.80;;;9.63;;
85385;SDS011;75792;42.686;23.298;2024-02-21T08:01:18;18.25;;;10.77;;
85385;SDS011;75792;42.686;23.298;2024-02-21T08:03:47;24.75;;;14.60;;
85385;SDS011;75792;42.686;23.298;2024-02-21T08:06:13;18.02;;;12.18;;
85385;SDS011;75792;42.686;23.298;2024-02-21T08:08:39;21.48;;;9.82;;
85385;SDS011;75792;42.686;23.298;2024-02-21T08:11:04;16.60;;;11.90;;
85385;SDS011;75792;42.686;23.298;2024-02-21T08:13:30;17.38;;;13.57;;
85385;SDS011;75792;42.686;23.298;2024-02-21T08:15:56;17.77;;;11.18;;
85385;SDS011;75792;42.686;23.298;2024-02-21T08:18:22;16.10;;;12.10;;
85385;SDS011;75792;42.686;23.298;2024-02-21T08:20:48;16.83;;;10.57;;
85385;SDS011;75792;42.686;23.298;2024-02-21T08:23:17;16.48;;;9.50;;
85385;SDS011;75792;42.686;23.298;2024-02-21T08:25:44;17.42;;;10.95;;
85385;SDS011;75792;42.686;23.298;2024-02-21T08:28:10;15.00;;;9.73;;
85385;SDS011;75792;42.686;23.298;2024-02-21T08:30:36;13.60;;;9.20;;
85385;SDS011;75792;42.686;23.298;2024-02-21T08:33:01;17.27;;;12.68;;
85385;SDS011;75792;42.686;23.298;2024-02-21T08:35:26;16.27;;;11.43;;
85385;SDS011;75792;42.686;23.298;2024-02-21T08:37:52;13.75;;;11.13;;
85385;SDS011;75792;42.686;23.298;2024-02-21T08:40:17;17.27;;;12.18;;
85385;SDS011;75792;42.686;23.298;2024-02-21T08:42:45;14.63;;;8.52;;
85385;SDS011;75792;42.686;23.298;2024-02-21T08:45:11;14.85;;;8.75;;
85385;SDS011;75792;42.686;23.298;2024-02-21T08:47:39;13.70;;;8.77;;
85385;SDS011;75792;42.686;23.298;2024-02-21T08:50:05;11.73;;;8.13;;
85385;SDS011;75792;42.686;23.298;2024-02-21T08:52:31;14.57;;;11.38;;
85385;SDS011;75792;42.686;23.298;2024-02-21T08:54:56;15.70;;;8.98;;
85385;SDS011;75792;42.686;23.298;2024-02-21T08:57:22;14.07;;;9.07;;
85385;SDS011;75792;42.686;23.298;2024-02-21T08:59:47;17.45;;;12.52;;
85385;SDS011;75792;42.686;23.298;2024-02-21T09:02:13;13.55;;;8.48;;
85385;SDS011;75792;42.686;23.298;2024-02-21T09:04:41;13.55;;;10.48;;
85385;SDS011;75792;42.686;23.298;2024-02-21T09:07:06;15.90;;;10.68;;
85385;SDS011;75792;42.686;23.298;2024-02-21T09:09:32;13.45;;;11.10;;
85385;SDS011;75792;42.686;23.298;2024-02-21T09:11:58;16.13;;;9.70;;
85385;SDS011;75792;42.686;23.298;2024-02-21T09:14:30;14.90;;;12.68;;
85385;SDS011;75792;42.686;23.298;2024-02-21T09:16:56;11.20;;;10.00;;
85385;SDS011;75792;42.686;23.298;2024-02-21T09:19:21;13.68;;;11.98;;
85385;SDS011;75792;42.686;23.298;2024-02-21T09:21:47;17.27;;;12.93;;
85385;SDS011;75792;42.686;23.298;2024-02-21T09:24:12;15.60;;;9.65;;
85385;SDS011;75792;42.686;23.298;2024-02-21T09:26:38;13.43;;;8.38;;
85385;SDS011;75792;42.686;23.298;2024-02-21T09:29:04;15.95;;;12.30;;
85385;SDS011;75792;42.686;23.298;2024-02-21T09:31:29;17.52;;;13.30;;
85385;SDS011;75792;42.686;23.298;2024-02-21T09:33:55;14.82;;;9.38;;
85385;SDS011;75792;42.686;23.298;2024-02-21T09:36:20;15.85;;;11.88;;
85385;SDS011;75792;42.686;23.298;2024-02-21T09:38:46;16.38;;;12.05;;
85385;SDS011;75792;42.686;23.298;2024-02-21T09:41:15;15.32;;;10.60;;
85385;SDS011;75792;42.686;23.298;2024-02-21T09:43:50;16.20;;;8.73;;
85385;SDS011;75792;42.686;23.298;2024-02-21T09:46:18;12.93;;;8.68;;
85385;SDS011;75792;42.686;23.298;2024-02-21T09:51:31;15.93;;;12.02;;
85385;SDS011;75792;42.686;23.298;2024-02-21T09:53:59;13.10;;;11.63;;
85385;SDS011;75792;42.686;23.298;2024-02-21T09:56:28;15.75;;;8.80;;
85385;SDS011;75792;42.686;23.298;2024-02-21T09:58:53;15.63;;;8.48;;
85385;SDS011;75792;42.686;23.298;2024-02-21T10:01:19;12.52;;;10.15;;
85385;SDS011;75792;42.686;23.298;2024-02-21T10:03:44;12.35;;;7.68;;
85385;SDS011;75792;42.686;23.298;2024-02-21T10:06:10;13.75;;;10.73;;
85385;SDS011;75792;42.686;23.298;2024-02-21T10:08:35;14.90;;;11.82;;
85385;SDS011;75792;42.686;23.298;2024-02-21T10:11:00;12.88;;;8.80;;
85385;SDS011;75792;42.686;23.298;2024-02-21T10:13:28;12.52;;;11.23;;
85385;SDS011;75792;42.686;23.298;2024-02-21T10:16:04;11.95;;;7.00;;
85385;SDS011;75792;42.686;23.298;2024-02-21T10:18:32;11.70;;;8.52;;
85385;SDS011;75792;42.686;23.298;2024-02-21T10:21:05;10.00;;;7.20;;
85385;SDS011;75792;42.686;23.298;2024-02-21T10:23:42;10.30;;;8.05;;
85385;SDS011;75792;42.686;23.298;2024-02-21T10:26:11;11.77;;;10.48;;
85385;SDS011;75792;42.686;23.298;2024-02-21T10:28:37;11.93;;;10.30;;
85385;SDS011;75792;42.686;23.298;2024-02-21T10:31:10;12.40;;;7.57;;
85385;SDS011;75792;42.686;23.298;2024-02-21T10:33:36;11.32;;;7.80;;
85385;SDS011;75792;42.686;23.298;2024-02-21T10:36:06;10.68;;;9.57;;
85385;SDS011;75792;42.686;23.298;2024-02-21T10:41:01;13.60;;;9.27;;
85385;SDS011;75792;42.686;23.298;2024-02-21T10:43:29;7.15;;;4.95;;
85385;SDS011;75792;42.686;23.298;2024-02-21T10:46:03;10.65;;;8.35;;
85385;SDS011;75792;42.686;23.298;2024-02-21T10:48:38;10.82;;;9.27;;
85385;SDS011;75792;42.686;23.298;2024-02-21T10:53:57;12.82;;;8.85;;
85385;SDS011;75792;42.686;23.298;2024-02-21T10:56:36;10.48;;;9.40;;
85385;SDS011;75792;42.686;23.298;2024-02-21T10:59:05;9.02;;;5.80;;
85385;SDS011;75792;42.686;23.298;2024-02-21T11:01:31;8.20;;;7.40;;
85385;SDS011;75792;42.686;23.298;2024-02-21T11:03:58;8.02;;;5.65;;
85385;SDS011;75792;42.686;23.298;2024-02-21T11:06:26;12.00;;;8.68;;
85385;SDS011;75792;42.686;23.298;2024-02-21T11:09:28;7.13;;;6.53;;
85385;SDS011;75792;42.686;23.298;2024-02-21T11:11:55;6.72;;;6.13;;
85385;SDS011;75792;42.686;23.298;2024-02-21T11:14:23;6.50;;;4.53;;
85385;SDS011;75792;42.686;23.298;2024-02-21T11:16:52;5.20;;;3.90;;
85385;SDS011;75792;42.686;23.298;2024-02-21T11:19:21;6.53;;;4.38;;
85385;SDS011;75792;42.686;23.298;2024-02-21T11:21:47;9.52;;;8.50;;
85385;SDS011;75792;42.686;23.298;2024-02-21T11:24:13;9.27;;;8.45;;
85385;SDS011;75792;42.686;23.298;2024-02-21T11:26:50;7.22;;;6.63;;
85385;SDS011;75792;42.686;23.298;2024-02-21T11:29:15;6.53;;;6.00;;
85385;SDS011;75792;42.686;23.298;2024-02-21T11:31:49;5.00;;;3.65;;
85385;SDS011;75792;42.686;23.298;2024-02-21T11:34:17;7.13;;;6.45;;
85385;SDS011;75792;42.686;23.298;2024-02-21T11:36:47;5.13;;;3.78;;
85385;SDS011;75792;42.686;23.298;2024-02-21T11:41:47;5.90;;;3.75;;
85385;SDS011;75792;42.686;23.298;2024-02-21T11:44:13;6.53;;;4.53;;
85385;SDS011;75792;42.686;23.298;2024-02-21T11:46:38;8.23;;;7.53;;
85385;SDS011;75792;42.686;23.298;2024-02-21T11:49:04;6.90;;;3.83;;
85385;SDS011;75792;42.686;23.298;2024-02-21T11:51:30;4.88;;;3.75;;
85385;SDS011;75792;42.686;23.298;2024-02-21T11:53:55;8.55;;;7.72;;
85385;SDS011;75792;42.686;23.298;2024-02-21T11:56:20;7.93;;;6.20;;
85385;SDS011;75792;42.686;23.298;2024-02-21T11:58:47;6.90;;;6.30;;
85385;SDS011;75792;42.686;23.298;2024-02-21T12:01:13;5.07;;;3.85;;
85385;SDS011;75792;42.686;23.298;2024-02-21T12:03:39;5.28;;;3.95;;
85385;SDS011;75792;42.686;23.298;2024-02-21T12:06:06;8.82;;;8.13;;
85385;SDS011;75792;42.686;23.298;2024-02-21T12:08:41;7.28;;;4.75;;
85385;SDS011;75792;42.686;23.298;2024-02-21T12:11:18;6.40;;;4.70;;
85385;SDS011;75792;42.686;23.298;2024-02-21T12:13:45;7.28;;;5.53;;
85385;SDS011;75792;42.686;23.298;2024-02-21T12:18:39;7.63;;;4.00;;
85385;SDS011;75792;42.686;23.298;2024-02-21T12:21:05;10.73;;;7.68;;
85385;SDS011;75792;42.686;23.298;2024-02-21T12:23:30;9.13;;;8.23;;
85385;SDS011;75792;42.686;23.298;2024-02-21T12:25:55;6.88;;;5.28;;
85385;SDS011;75792;42.686;23.298;2024-02-21T12:28:21;6.88;;;5.28;;
85385;SDS011;75792;42.686;23.298;2024-02-21T12:30:47;5.57;;;4.03;;
85385;SDS011;75792;42.686;23.298;2024-02-21T12:33:12;8.55;;;7.65;;
85385;SDS011;75792;42.686;23.298;2024-02-21T12:35:39;8.55;;;4.93;;
85385;SDS011;75792;42.686;23.298;2024-02-21T12:38:05;9.27;;;8.38;;
85385;SDS011;75792;42.686;23.298;2024-02-21T12:40:30;8.52;;;7.10;;
85385;SDS011;75792;42.686;23.298;2024-02-21T12:42:58;5.65;;;3.25;;
85385;SDS011;75792;42.686;23.298;2024-02-21T12:45:28;9.38;;;6.70;;
85385;SDS011;75792;42.686;23.298;2024-02-21T12:47:53;7.55;;;5.43;;
85385;SDS011;75792;42.686;23.298;2024-02-21T12:50:19;8.45;;;6.82;;
85385;SDS011;75792;42.686;23.298;2024-02-21T12:52:44;7.05;;;5.75;;
85385;SDS011;75792;42.686;23.298;2024-02-21T12:55:10;9.60;;;6.90;;
85385;SDS011;75792;42.686;23.298;2024-02-21T12:57:37;9.80;;;8.13;;
85385;SDS011;75792;42.686;23.298;2024-02-21T13:00:02;8.52;;;7.72;;
85385;SDS011;75792;42.686;23.298;2024-02-21T13:02:28;10.10;;;9.10;;
85385;SDS011;75792;42.686;23.298;2024-02-21T13:04:54;7.57;;;4.57;;
85385;SDS011;75792;42.686;23.298;2024-02-21T13:07:19;9.00;;;6.05;;
85385;SDS011;75792;42.686;23.298;2024-02-21T13:09:45;6.30;;;4.13;;
85385;SDS011;75792;42.686;23.298;2024-02-21T13:12:11;7.65;;;7.00;;
85385;SDS011;75792;42.686;23.298;2024-02-21T13:14:37;10.10;;;7.90;;
85385;SDS011;75792;42.686;23.298;2024-02-21T13:17:04;7.70;;;6.97;;
85385;SDS011;75792;42.686;23.298;2024-02-21T13:19:29;11.75;;;9.32;;
85385;SDS011;75792;42.686;23.298;2024-02-21T13:21:55;9.50;;;7.70;;
85385;SDS011;75792;42.686;23.298;2024-02-21T13:24:20;8.85;;;7.90;;
85385;SDS011;75792;42.686;23.298;2024-02-21T13:26:45;5.70;;;4.63;;
85385;SDS011;75792;42.686;23.298;2024-02-21T13:29:11;6.50;;;4.22;;
85385;SDS011;75792;42.686;23.298;2024-02-21T13:31:37;8.50;;;6.72;;
85385;SDS011;75792;42.686;23.298;2024-02-21T13:34:02;5.85;;;4.20;;
85385;SDS011;75792;42.686;23.298;2024-02-21T13:36:28;5.43;;;4.20;;
85385;SDS011;75792;42.686;23.298;2024-02-21T13:38:53;8.98;;;8.23;;
85385;SDS011;75792;42.686;23.298;2024-02-21T13:41:18;8.07;;;7.13;;
85385;SDS011;75792;42.686;23.298;2024-02-21T13:43:44;8.02;;;7.43;;
85385;SDS011;75792;42.686;23.298;2024-02-21T13:46:11;9.13;;;7.57;;
85385;SDS011;75792;42.686;23.298;2024-02-21T13:48:36;6.50;;;4.57;;
85385;SDS011;75792;42.686;23.298;2024-02-21T13:51:02;4.78;;;3.97;;
85385;SDS011;75792;42.686;23.298;2024-02-21T13:53:28;7.30;;;5.45;;
85385;SDS011;75792;42.686;23.298;2024-02-21T13:55:54;10.40;;;8.40;;
85385;SDS011;75792;42.686;23.298;2024-02-21T13:58:19;9.57;;;5.65;;
85385;SDS011;75792;42.686;23.298;2024-02-21T14:00:45;12.55;;;7.93;;
85385;SDS011;75792;42.686;23.298;2024-02-21T14:03:10;9.65;;;8.10;;
85385;SDS011;75792;42.686;23.298;2024-02-21T14:05:35;8.98;;;8.07;;
85385;SDS011;75792;42.686;23.298;2024-02-21T14:08:01;8.27;;;5.32;;
85385;SDS011;75792;42.686;23.298;2024-02-21T14:10:26;10.07;;;9.00;;
85385;SDS011;75792;42.686;23.298;2024-02-21T14:12:53;7.22;;;4.53;;
85385;SDS011;75792;42.686;23.298;2024-02-21T14:15:18;6.97;;;4.13;;
85385;SDS011;75792;42.686;23.298;2024-02-21T14:17:44;8.18;;;5.22;;
85385;SDS011;75792;42.686;23.298;2024-02-21T14:20:12;8.50;;;7.63;;
85385;SDS011;75792;42.686;23.298;2024-02-21T14:22:39;10.65;;;7.57;;
85385;SDS011;75792;42.686;23.298;2024-02-21T14:25:04;8.77;;;7.93;;
85385;SDS011;75792;42.686;23.298;2024-02-21T14:27:32;8.73;;;4.68;;
85385;SDS011;75792;42.686;23.298;2024-02-21T14:29:58;10.20;;;5.53;;
85385;SDS011;75792;42.686;23.298;2024-02-21T14:32:23;8.43;;;4.25;;
85385;SDS011;75792;42.686;23.298;2024-02-21T14:34:49;9.10;;;7.20;;
85385;SDS011;75792;42.686;23.298;2024-02-21T14:37:15;9.85;;;8.55;;
85385;SDS011;75792;42.686;23.298;2024-02-21T14:39:40;7.25;;;4.63;;
85385;SDS011;75792;42.686;23.298;2024-02-21T14:42:06;11.02;;;8.20;;